createdAt,value
2023-01-07T00:02:46.997Z,5.40
2023-01-07T00:05:48.535Z,5.68
2023-01-07T00:08:51.555Z,4.60
2023-01-07T00:11:54.386Z,4.25
2023-01-07T00:15:00.179Z,4.80
2023-01-07T00:18:01.652Z,4.35
2023-01-07T00:21:05.076Z,4.80
2023-01-07T00:24:07.502Z,4.50
2023-01-07T00:27:14.200Z,3.65
2023-01-07T00:30:19.977Z,3.38
2023-01-07T00:33:21.477Z,3.17
2023-01-07T00:36:24.752Z,3.40
2023-01-07T00:39:26.460Z,3.25
2023-01-07T00:42:29.263Z,3.22
2023-01-07T00:45:35.618Z,3.40
2023-01-07T00:48:37.115Z,3.35
2023-01-07T00:51:38.582Z,3.45
2023-01-07T00:54:40.134Z,3.30
2023-01-07T00:57:43.788Z,3.30
2023-01-07T01:00:45.812Z,3.67
2023-01-07T01:03:47.407Z,3.83
2023-01-07T01:06:48.920Z,5.90
2023-01-07T01:09:50.506Z,4.20
2023-01-07T01:12:57.412Z,3.80
2023-01-07T01:16:07.945Z,4.37
2023-01-07T01:19:09.486Z,4.15
2023-01-07T01:22:10.961Z,4.40
2023-01-07T01:25:13.145Z,4.50
2023-01-07T01:28:19.148Z,4.60
2023-01-07T01:31:20.649Z,4.63
2023-01-07T01:34:25.535Z,4.53
2023-01-07T01:37:27.102Z,4.50
2023-01-07T01:40:29.768Z,4.50
2023-01-07T01:43:34.546Z,5.28
2023-01-07T01:46:38.191Z,4.57
2023-01-07T01:49:45.146Z,4.20
2023-01-07T01:52:49.876Z,4.03
2023-01-07T01:55:54.373Z,4.40
2023-01-07T01:58:59.855Z,4.30
2023-01-07T02:02:02.068Z,4.22
2023-01-07T02:05:04.718Z,3.80
2023-01-07T02:08:06.769Z,4.03
2023-01-07T02:11:19.696Z,4.00
2023-01-07T02:14:33.939Z,3.83
2023-01-07T02:17:43.800Z,9.20
2023-01-07T02:20:52.892Z,3.63
2023-01-07T02:24:42.240Z,3.60
2023-01-07T02:28:05.722Z,3.45
2023-01-07T02:31:29.042Z,3.38
2023-01-07T02:34:37.846Z,4.00
2023-01-07T02:37:44.568Z,4.57
2023-01-07T02:40:52.997Z,3.95
2023-01-07T02:43:59.591Z,3.88
2023-01-07T02:47:05.046Z,4.20
2023-01-07T02:50:08.525Z,3.70
2023-01-07T02:53:13.723Z,3.42
2023-01-07T02:56:24.368Z,4.03
2023-01-07T02:59:43.315Z,3.50
2023-01-07T03:03:07.844Z,4.07
2023-01-07T03:06:22.468Z,3.33
2023-01-07T03:09:31.925Z,2.97
2023-01-07T03:12:35.404Z,2.88
2023-01-07T03:15:40.315Z,2.80
2023-01-07T03:18:46.166Z,2.70
2023-01-07T03:21:49.137Z,3.10
2023-01-07T03:24:52.518Z,2.60
2023-01-07T03:27:54.569Z,2.72
2023-01-07T03:30:57.009Z,3.42
2023-01-07T03:34:00.585Z,2.25
2023-01-07T03:37:08.213Z,1.90
2023-01-07T03:40:11.324Z,2.78
2023-01-07T03:43:14.728Z,1.92
2023-01-07T03:46:16.412Z,2.00
2023-01-07T03:49:17.956Z,2.08
2023-01-07T03:52:20.863Z,1.90
2023-01-07T03:55:22.712Z,2.03
2023-01-07T03:58:26.987Z,1.67
2023-01-07T04:01:28.615Z,1.77
2023-01-07T04:04:30.283Z,1.50
2023-01-07T04:07:33.453Z,1.40
2023-01-07T04:10:34.936Z,1.98
2023-01-07T04:13:36.540Z,1.65
2023-01-07T04:16:38.114Z,2.17
2023-01-07T04:19:39.766Z,1.48
2023-01-07T04:22:42.620Z,1.38
2023-01-07T04:25:46.221Z,1.55
2023-01-07T04:28:48.859Z,1.30
2023-01-07T04:31:50.722Z,1.48
2023-01-07T04:34:59.080Z,1.15
2023-01-07T04:38:03.821Z,1.42
2023-01-07T04:41:05.857Z,1.08
2023-01-07T04:44:09.051Z,1.50
2023-01-07T04:47:10.593Z,1.10
2023-01-07T04:50:12.095Z,0.93
2023-01-07T04:53:15.703Z,1.05
2023-01-07T04:56:17.465Z,0.80
2023-01-07T04:59:19.996Z,1.15
2023-01-07T05:02:22.458Z,0.70
2023-01-07T05:05:24.508Z,1.02
2023-01-07T05:08:27.824Z,0.63
2023-01-07T05:11:29.403Z,0.95
2023-01-07T05:14:33.173Z,0.95
2023-01-07T05:17:35.308Z,1.17
2023-01-07T05:20:38.837Z,1.88
2023-01-07T05:23:42.668Z,0.70
2023-01-07T05:26:44.148Z,1.33
2023-01-07T05:29:46.131Z,0.70
2023-01-07T05:32:47.626Z,0.63
2023-01-07T05:35:49.272Z,0.80
2023-01-07T05:38:53.618Z,0.70
2023-01-07T05:41:55.554Z,0.77
2023-01-07T05:44:59.110Z,1.48
2023-01-07T05:48:00.609Z,1.30
2023-01-07T05:51:02.155Z,0.70
2023-01-07T05:54:05.133Z,0.70
2023-01-07T05:57:06.590Z,0.60
2023-01-07T06:00:09.220Z,0.95
2023-01-07T06:03:13.631Z,1.23
2023-01-07T06:06:15.128Z,1.67
2023-01-07T06:09:18.023Z,0.60
2023-01-07T06:12:19.991Z,1.00
2023-01-07T06:15:21.475Z,0.65
2023-01-07T06:18:22.926Z,0.60
2023-01-07T06:21:24.341Z,1.13
2023-01-07T06:24:30.340Z,0.85
2023-01-07T06:27:32.076Z,1.50
2023-01-07T06:30:33.540Z,0.80
2023-01-07T06:33:35.001Z,0.90
2023-01-07T06:36:36.505Z,2.47
2023-01-07T06:39:39.326Z,0.80
2023-01-07T06:42:41.117Z,0.93
2023-01-07T06:45:42.611Z,1.38
2023-01-07T06:48:44.137Z,0.80
2023-01-07T06:51:45.563Z,0.75
2023-01-07T06:54:48.703Z,1.20
2023-01-07T06:57:50.272Z,1.00
2023-01-07T07:00:51.776Z,1.23
2023-01-07T07:03:53.343Z,0.73
2023-01-07T07:06:55.217Z,1.02
2023-01-07T07:12:59.387Z,0.75
2023-01-07T07:16:00.896Z,1.85
2023-01-07T07:19:02.448Z,1.83
2023-01-07T07:22:04.838Z,0.90
2023-01-07T07:25:13.105Z,1.00
2023-01-07T07:28:21.199Z,0.95
2023-01-07T07:31:22.683Z,1.00
2023-01-07T07:34:24.130Z,1.27
2023-01-07T07:37:25.599Z,0.90
2023-01-07T07:40:28.389Z,1.58
2023-01-07T07:43:29.845Z,2.22
2023-01-07T07:46:31.431Z,1.30
2023-01-07T07:49:32.913Z,1.48
2023-01-07T07:52:35.212Z,1.58
2023-01-07T07:55:38.043Z,1.15
2023-01-07T07:58:39.703Z,1.70
2023-01-07T08:01:41.190Z,1.42
2023-01-07T08:04:45.588Z,1.60
2023-01-07T08:07:47.059Z,1.40
2023-01-07T08:10:49.938Z,1.67
2023-01-07T08:13:52.031Z,1.70
2023-01-07T08:16:53.585Z,2.20
2023-01-07T08:19:55.012Z,4.72
2023-01-07T08:23:01.248Z,2.30
2023-01-07T08:26:04.200Z,2.55
2023-01-07T08:29:05.657Z,2.13
2023-01-07T08:32:07.164Z,2.13
2023-01-07T08:35:09.957Z,2.20
2023-01-07T08:38:18.759Z,1.98
2023-01-07T08:41:22.554Z,2.25
2023-01-07T08:44:24.031Z,2.80
2023-01-07T08:47:25.601Z,2.33
2023-01-07T08:50:34.911Z,5.35
2023-01-07T08:53:43.251Z,3.95
2023-01-07T08:56:46.027Z,2.60
2023-01-07T08:59:47.514Z,2.40
2023-01-07T09:02:51.310Z,2.55
2023-01-07T09:05:54.394Z,2.42
2023-01-07T09:08:55.849Z,3.15
2023-01-07T09:11:58.682Z,2.30
2023-01-07T09:15:00.319Z,4.80
2023-01-07T09:18:08.088Z,3.92
2023-01-07T09:21:09.536Z,3.13
2023-01-07T09:24:11.037Z,1.80
2023-01-07T09:27:13.895Z,1.98
2023-01-07T09:30:15.986Z,2.22
2023-01-07T09:33:18.838Z,2.83
2023-01-07T09:36:20.317Z,2.97
2023-01-07T09:39:28.839Z,4.95
2023-01-07T09:42:38.448Z,2.55
2023-01-07T09:45:42.684Z,2.33
2023-01-07T09:48:50.807Z,2.25
2023-01-07T09:51:55.231Z,2.20
2023-01-07T09:55:02.082Z,2.13
2023-01-07T09:58:14.553Z,2.13
2023-01-07T10:01:22.384Z,2.30
2023-01-07T10:04:31.458Z,2.30
2023-01-07T10:07:37.808Z,2.58
2023-01-07T10:10:47.447Z,2.78
2023-01-07T10:14:01.773Z,2.42
2023-01-07T10:17:09.852Z,2.15
2023-01-07T10:20:21.832Z,4.10
2023-01-07T10:23:25.861Z,2.42
2023-01-07T10:26:31.891Z,2.63
2023-01-07T10:29:38.904Z,1.83
2023-01-07T10:32:44.859Z,2.85
2023-01-07T10:35:47.907Z,3.83
2023-01-07T10:38:56.438Z,2.22
2023-01-07T10:42:02.603Z,3.22
2023-01-07T10:45:21.688Z,4.53
2023-01-07T10:48:42.258Z,1.50
2023-01-07T10:51:59.611Z,1.92
2023-01-07T10:55:10.356Z,2.95
2023-01-07T10:58:12.156Z,1.85
2023-01-07T11:04:20.246Z,2.15
2023-01-07T11:07:29.799Z,1.48
2023-01-07T11:10:34.068Z,1.58
2023-01-07T11:13:36.319Z,1.73
2023-01-07T11:16:43.994Z,1.92
2023-01-07T11:19:51.880Z,1.95
2023-01-07T11:22:53.384Z,1.52
2023-01-07T11:26:13.931Z,2.08
2023-01-07T11:29:17.424Z,1.40
2023-01-07T11:32:25.336Z,1.98
2023-01-07T11:35:30.688Z,1.40
2023-01-07T11:38:34.051Z,1.50
2023-01-07T11:41:35.640Z,1.70
2023-01-07T11:47:45.627Z,1.70
2023-01-07T11:50:58.821Z,1.08
2023-01-07T11:54:00.362Z,1.00
2023-01-07T11:57:12.447Z,1.23
2023-01-07T12:03:18.288Z,1.63
2023-01-07T12:06:29.831Z,0.80
2023-01-07T12:09:37.709Z,1.35
2023-01-07T12:12:43.027Z,0.90
2023-01-07T12:15:49.840Z,1.27
2023-01-07T12:18:59.971Z,1.40
2023-01-07T12:22:09.950Z,1.15
2023-01-07T12:25:33.755Z,0.98
2023-01-07T12:28:49.904Z,1.35
2023-01-07T12:32:06.986Z,1.00
2023-01-07T12:35:14.462Z,2.45
2023-01-07T12:38:20.103Z,2.63
2023-01-07T12:41:25.620Z,1.60
2023-01-07T12:44:27.168Z,3.53
2023-01-07T12:47:34.952Z,2.40
2023-01-07T12:50:41.156Z,2.33
2023-01-07T12:53:46.637Z,2.60
2023-01-07T12:56:52.174Z,3.28
2023-01-07T13:00:00.187Z,2.13
2023-01-07T13:03:10.620Z,2.58
2023-01-07T13:06:17.387Z,4.07
2023-01-07T13:09:25.537Z,3.33
2023-01-07T13:12:41.596Z,4.28
2023-01-07T13:15:44.379Z,3.63
2023-01-07T13:18:49.165Z,8.63
2023-01-07T13:21:52.179Z,5.40
2023-01-07T13:25:03.977Z,6.03
2023-01-07T13:28:28.872Z,3.13
2023-01-07T13:31:45.499Z,3.83
2023-01-07T13:34:59.850Z,2.83
2023-01-07T13:38:14.216Z,2.60
2023-01-07T13:41:28.283Z,4.90
2023-01-07T13:44:50.243Z,4.47
2023-01-07T13:47:53.547Z,4.45
2023-01-07T13:50:57.416Z,4.57
2023-01-07T13:54:00.321Z,4.00
2023-01-07T13:57:44.450Z,4.55
2023-01-07T14:01:01.613Z,4.95
2023-01-07T14:04:35.536Z,3.42
2023-01-07T14:07:44.448Z,4.20
2023-01-07T14:10:52.089Z,5.53
2023-01-07T14:14:00.634Z,9.13
2023-01-07T14:17:10.281Z,7.43
2023-01-07T14:20:17.325Z,6.78
2023-01-07T14:23:27.726Z,4.07
2023-01-07T14:26:33.079Z,3.60
2023-01-07T14:29:42.014Z,9.85
2023-01-07T14:32:57.735Z,5.45
2023-01-07T14:36:00.820Z,4.72
2023-01-07T14:39:02.291Z,6.75
2023-01-07T14:42:26.841Z,4.30
2023-01-07T14:45:55.008Z,4.40
2023-01-07T14:49:39.448Z,2.92
2023-01-07T14:52:57.051Z,2.97
2023-01-07T14:56:17.608Z,2.33
2023-01-07T14:59:36.641Z,2.05
2023-01-07T15:03:07.978Z,2.45
2023-01-07T15:06:27.459Z,1.93
2023-01-07T15:09:36.745Z,1.80
2023-01-07T15:12:39.898Z,3.15
2023-01-07T15:15:45.515Z,2.22
2023-01-07T15:18:50.147Z,2.22
2023-01-07T15:22:00.875Z,1.60
2023-01-07T15:25:08.972Z,3.50
2023-01-07T15:28:16.066Z,2.60
2023-01-07T15:31:22.815Z,1.70
2023-01-07T15:34:31.194Z,1.70
2023-01-07T15:37:34.343Z,1.02
2023-01-07T15:40:37.113Z,1.92
2023-01-07T15:43:44.319Z,1.83
2023-01-07T15:46:46.021Z,2.10
2023-01-07T15:49:49.076Z,1.50
2023-01-07T15:52:52.372Z,1.77
2023-01-07T15:55:57.402Z,1.17
2023-01-07T15:58:58.929Z,2.00
2023-01-07T16:02:13.118Z,2.05
2023-01-07T16:05:17.545Z,1.88
2023-01-07T16:08:21.756Z,1.65
2023-01-07T16:11:25.491Z,1.80
2023-01-07T16:14:34.373Z,2.20
2023-01-07T16:17:35.831Z,1.50
2023-01-07T16:20:40.773Z,2.08
2023-01-07T16:23:42.290Z,2.90
2023-01-07T16:26:46.388Z,1.40
2023-01-07T16:29:50.958Z,1.70
2023-01-07T16:32:52.509Z,2.00
2023-01-07T16:35:56.421Z,1.60
2023-01-07T16:38:59.323Z,1.75
2023-01-07T16:42:01.855Z,2.00
2023-01-07T16:45:06.125Z,3.30
2023-01-07T16:48:19.904Z,2.80
2023-01-07T16:51:37.490Z,3.42
2023-01-07T16:54:38.942Z,2.35
2023-01-07T16:57:42.357Z,2.60
2023-01-07T17:00:48.662Z,2.58
2023-01-07T17:03:53.805Z,3.22
2023-01-07T17:06:57.958Z,6.40
2023-01-07T17:10:02.209Z,2.25
2023-01-07T17:13:05.562Z,2.80
2023-01-07T17:16:28.738Z,2.20
2023-01-07T17:19:34.666Z,3.17
2023-01-07T17:22:38.401Z,3.92
2023-01-07T17:25:39.886Z,4.05
2023-01-07T17:28:44.280Z,3.25
2023-01-07T17:31:46.400Z,4.47
2023-01-07T17:34:47.955Z,2.88
2023-01-07T17:37:51.314Z,2.80
2023-01-07T17:40:53.162Z,2.75
2023-01-07T17:43:54.616Z,3.17
2023-01-07T17:46:56.172Z,2.60
2023-01-07T17:49:57.685Z,2.85
2023-01-07T17:53:04.506Z,2.85
2023-01-07T17:56:06.572Z,3.10
2023-01-07T17:59:13.472Z,3.10
2023-01-07T18:02:17.547Z,5.57
2023-01-07T18:05:26.733Z,3.10
2023-01-07T18:08:29.530Z,4.32
2023-01-07T18:11:35.215Z,2.83
2023-01-07T18:14:36.938Z,3.28
2023-01-07T18:17:38.465Z,3.90
2023-01-07T18:20:42.665Z,4.35
2023-01-07T18:23:45.504Z,3.63
2023-01-07T18:26:47.361Z,3.67
2023-01-07T18:32:50.252Z,3.55
2023-01-07T18:35:51.684Z,2.78
2023-01-07T18:38:54.570Z,3.38
2023-01-07T18:42:00.473Z,2.70
2023-01-07T18:45:02.051Z,4.38
2023-01-07T18:48:04.216Z,3.35
2023-01-07T18:51:09.696Z,2.85
2023-01-07T18:54:12.595Z,3.05
2023-01-07T18:57:14.073Z,3.50
2023-01-07T19:00:21.872Z,4.68
2023-01-07T19:03:31.041Z,4.45
2023-01-07T19:06:32.831Z,3.75
2023-01-07T19:09:35.747Z,4.95
2023-01-07T19:12:37.317Z,3.30
2023-01-07T19:15:39.393Z,2.80
2023-01-07T19:18:40.992Z,2.40
2023-01-07T19:21:49.243Z,3.13
2023-01-07T19:24:55.610Z,3.33
2023-01-07T19:27:57.477Z,4.07
2023-01-07T19:34:06.909Z,3.22
2023-01-07T19:37:08.373Z,3.20
2023-01-07T19:40:12.935Z,3.25
2023-01-07T19:43:14.686Z,3.63
2023-01-07T19:46:20.704Z,3.10
2023-01-07T19:49:22.886Z,3.58
2023-01-07T19:52:24.618Z,3.03
2023-01-07T19:55:31.151Z,3.20
2023-01-07T19:58:33.512Z,3.15
2023-01-07T20:01:39.609Z,2.92
2023-01-07T20:04:41.199Z,3.40
2023-01-07T20:07:42.689Z,3.13
2023-01-07T20:10:56.237Z,3.45
2023-01-07T20:13:57.703Z,3.10
2023-01-07T20:17:05.420Z,2.90
2023-01-07T20:20:08.421Z,4.05
2023-01-07T20:23:10.043Z,3.70
2023-01-07T20:26:15.890Z,3.15
2023-01-07T20:29:17.515Z,3.38
2023-01-07T20:32:19.920Z,3.28
2023-01-07T20:35:21.475Z,3.17
2023-01-07T20:38:22.952Z,3.00
2023-01-07T20:41:27.146Z,3.45
2023-01-07T20:44:28.732Z,4.07
2023-01-07T20:47:33.147Z,3.45
2023-01-07T20:50:38.268Z,4.25
2023-01-07T20:53:39.759Z,3.05
2023-01-07T20:56:42.845Z,3.35
2023-01-07T20:59:44.654Z,3.20
2023-01-07T21:05:47.919Z,3.63
2023-01-07T21:08:49.982Z,2.95
2023-01-07T21:11:52.864Z,5.22
2023-01-07T21:14:54.511Z,3.33
2023-01-07T21:17:56.153Z,3.17
2023-01-07T21:20:59.232Z,3.22
2023-01-07T21:24:00.855Z,3.70
2023-01-07T21:27:03.825Z,3.88
2023-01-07T21:30:10.761Z,3.35
2023-01-07T21:33:26.871Z,4.88
2023-01-07T21:36:28.710Z,4.97
2023-01-07T21:39:30.223Z,3.60
2023-01-07T21:42:34.641Z,3.50
2023-01-07T21:45:36.457Z,3.78
2023-01-07T21:48:40.000Z,5.70
2023-01-07T21:51:41.623Z,4.53
2023-01-07T21:54:43.108Z,4.18
2023-01-07T21:57:46.183Z,3.88
2023-01-07T22:00:49.545Z,3.38
2023-01-07T22:03:57.707Z,3.88
2023-01-07T22:06:59.185Z,3.67
2023-01-07T22:10:00.777Z,3.83
2023-01-07T22:13:03.602Z,5.40
2023-01-07T22:16:05.962Z,3.38
2023-01-07T22:19:08.813Z,3.25
2023-01-07T22:22:10.317Z,3.38
2023-01-07T22:25:12.042Z,3.92
2023-01-07T22:28:23.712Z,4.57
2023-01-07T22:31:27.175Z,3.75
2023-01-07T22:34:35.746Z,3.67
2023-01-07T22:37:37.316Z,2.97
2023-01-07T22:40:39.303Z,3.20
2023-01-07T22:46:45.377Z,3.83
2023-01-07T22:49:47.815Z,3.70
2023-01-07T22:52:49.296Z,3.30
2023-01-07T22:55:50.935Z,3.45
2023-01-07T22:58:53.816Z,3.63
2023-01-07T23:01:55.391Z,3.80
2023-01-07T23:04:56.915Z,4.13
2023-01-07T23:07:58.411Z,3.20
2023-01-07T23:10:59.996Z,3.35
2023-01-07T23:14:03.464Z,3.33
2023-01-07T23:17:05.671Z,3.75
2023-01-07T23:20:12.215Z,4.80
2023-01-07T23:23:13.929Z,3.42
2023-01-07T23:26:15.568Z,3.58
2023-01-07T23:29:18.858Z,3.22
2023-01-07T23:32:20.361Z,3.25
2023-01-07T23:35:29.113Z,2.90
2023-01-07T23:38:30.643Z,3.30
2023-01-07T23:41:32.661Z,3.67
2023-01-07T23:47:36.919Z,3.40
2023-01-07T23:50:38.490Z,3.22
2023-01-07T23:53:41.605Z,3.15
2023-01-07T23:56:43.093Z,3.22
2023-01-07T23:59:45.990Z,3.17
